sensor_id;sensor_type;location;lat;lon;timestamp;temperature;humidity
54082;DHT22;39986;50.770;0.266;2023-05-07T00:01:13;14.00;99.90
54082;DHT22;39986;50.770;0.266;2023-05-07T00:03:38;14.00;99.90
54082;DHT22;39986;50.770;0.266;2023-05-07T00:06:04;13.90;99.90
54082;DHT22;39986;50.770;0.266;2023-05-07T00:08:30;13.90;99.90
54082;DHT22;39986;50.770;0.266;2023-05-07T00:10:55;13.90;99.90
54082;DHT22;39986;50.770;0.266;2023-05-07T00:13:21;13.90;99.90
54082;DHT22;39986;50.770;0.266;2023-05-07T00:15:46;13.70;99.90
54082;DHT22;39986;50.770;0.266;2023-05-07T00:18:12;13.70;99.90
54082;DHT22;39986;50.770;0.266;2023-05-07T00:20:37;13.70;99.90
54082;DHT22;39986;50.770;0.266;2023-05-07T00:23:03;13.60;99.90
54082;DHT22;39986;50.770;0.266;2023-05-07T00:25:28;13.60;99.90
54082;DHT22;39986;50.770;0.266;2023-05-07T00:27:54;13.50;99.90
54082;DHT22;39986;50.770;0.266;2023-05-07T00:30:20;13.60;99.90
54082;DHT22;39986;50.770;0.266;2023-05-07T00:32:45;13.40;99.90
54082;DHT22;39986;50.770;0.266;2023-05-07T00:35:11;13.50;99.90
54082;DHT22;39986;50.770;0.266;2023-05-07T00:37:37;13.40;99.90
54082;DHT22;39986;50.770;0.266;2023-05-07T00:40:02;13.40;99.90
54082;DHT22;39986;50.770;0.266;2023-05-07T00:42:30;13.40;99.90
54082;DHT22;39986;50.770;0.266;2023-05-07T00:44:57;13.40;99.90
54082;DHT22;39986;50.770;0.266;2023-05-07T00:47:23;13.30;99.90
54082;DHT22;39986;50.770;0.266;2023-05-07T00:49:50;13.40;99.90
54082;DHT22;39986;50.770;0.266;2023-05-07T00:52:16;13.40;99.90
54082;DHT22;39986;50.770;0.266;2023-05-07T00:54:42;13.50;99.90
54082;DHT22;39986;50.770;0.266;2023-05-07T00:57:07;13.50;99.90
54082;DHT22;39986;50.770;0.266;2023-05-07T00:59:34;13.50;99.90
54082;DHT22;39986;50.770;0.266;2023-05-07T01:02:00;13.50;99.90
54082;DHT22;39986;50.770;0.266;2023-05-07T01:04:26;13.40;99.90
54082;DHT22;39986;50.770;0.266;2023-05-07T01:06:51;13.50;99.90
54082;DHT22;39986;50.770;0.266;2023-05-07T01:09:18;13.50;99.90
54082;DHT22;39986;50.770;0.266;2023-05-07T01:11:45;13.50;99.90
54082;DHT22;39986;50.770;0.266;2023-05-07T01:14:11;13.50;99.90
54082;DHT22;39986;50.770;0.266;2023-05-07T01:16:37;13.60;99.90
54082;DHT22;39986;50.770;0.266;2023-05-07T01:19:02;13.70;99.90
54082;DHT22;39986;50.770;0.266;2023-05-07T01:21:28;13.70;99.90
54082;DHT22;39986;50.770;0.266;2023-05-07T01:23:56;13.70;99.90
54082;DHT22;39986;50.770;0.266;2023-05-07T01:26:22;13.80;99.90
54082;DHT22;39986;50.770;0.266;2023-05-07T01:28:49;13.80;99.90
54082;DHT22;39986;50.770;0.266;2023-05-07T01:31:14;14.00;99.90
54082;DHT22;39986;50.770;0.266;2023-05-07T01:33:40;13.90;99.90
54082;DHT22;39986;50.770;0.266;2023-05-07T01:36:08;13.90;99.90
54082;DHT22;39986;50.770;0.266;2023-05-07T01:38:34;13.90;99.90
54082;DHT22;39986;50.770;0.266;2023-05-07T01:41:01;14.00;99.90
54082;DHT22;39986;50.770;0.266;2023-05-07T01:43:28;14.00;99.90
54082;DHT22;39986;50.770;0.266;2023-05-07T01:45:53;14.00;99.90
54082;DHT22;39986;50.770;0.266;2023-05-07T01:48:19;14.10;99.90
54082;DHT22;39986;50.770;0.266;2023-05-07T01:50:45;14.00;99.90
54082;DHT22;39986;50.770;0.266;2023-05-07T01:53:11;14.00;99.90
54082;DHT22;39986;50.770;0.266;2023-05-07T01:55:37;14.00;99.90
54082;DHT22;39986;50.770;0.266;2023-05-07T01:58:03;14.10;99.90
54082;DHT22;39986;50.770;0.266;2023-05-07T02:00:28;14.10;99.90
54082;DHT22;39986;50.770;0.266;2023-05-07T02:02:54;14.00;99.90
54082;DHT22;39986;50.770;0.266;2023-05-07T02:05:20;14.00;99.90
54082;DHT22;39986;50.770;0.266;2023-05-07T02:07:45;14.00;99.90
54082;DHT22;39986;50.770;0.266;2023-05-07T02:10:11;14.00;99.90
54082;DHT22;39986;50.770;0.266;2023-05-07T02:12:36;14.10;99.90
54082;DHT22;39986;50.770;0.266;2023-05-07T02:15:02;14.00;99.90
54082;DHT22;39986;50.770;0.266;2023-05-07T02:17:27;14.00;99.90
54082;DHT22;39986;50.770;0.266;2023-05-07T02:19:57;13.90;99.90
54082;DHT22;39986;50.770;0.266;2023-05-07T02:22:22;14.00;99.90
54082;DHT22;39986;50.770;0.266;2023-05-07T02:24:48;14.00;99.90
54082;DHT22;39986;50.770;0.266;2023-05-07T02:27:14;14.00;99.90
54082;DHT22;39986;50.770;0.266;2023-05-07T02:29:39;14.00;99.90
54082;DHT22;39986;50.770;0.266;2023-05-07T02:32:05;14.00;99.90
54082;DHT22;39986;50.770;0.266;2023-05-07T02:34:31;14.10;99.90
54082;DHT22;39986;50.770;0.266;2023-05-07T02:36:56;14.10;99.90
54082;DHT22;39986;50.770;0.266;2023-05-07T02:39:22;13.90;99.90
54082;DHT22;39986;50.770;0.266;2023-05-07T02:41:47;14.10;99.90
54082;DHT22;39986;50.770;0.266;2023-05-07T02:44:13;14.00;99.90
54082;DHT22;39986;50.770;0.266;2023-05-07T02:46:38;14.00;99.90
54082;DHT22;39986;50.770;0.266;2023-05-07T02:49:04;13.90;99.90
54082;DHT22;39986;50.770;0.266;2023-05-07T02:51:30;13.80;99.90
54082;DHT22;39986;50.770;0.266;2023-05-07T02:53:57;13.70;99.90
54082;DHT22;39986;50.770;0.266;2023-05-07T02:56:25;13.60;99.90
54082;DHT22;39986;50.770;0.266;2023-05-07T02:58:51;13.70;99.90
54082;DHT22;39986;50.770;0.266;2023-05-07T03:01:16;13.70;99.90
54082;DHT22;39986;50.770;0.266;2023-05-07T03:03:42;13.60;99.90
54082;DHT22;39986;50.770;0.266;2023-05-07T03:06:07;13.70;99.90
54082;DHT22;39986;50.770;0.266;2023-05-07T03:08:33;13.80;99.90
54082;DHT22;39986;50.770;0.266;2023-05-07T03:10:58;13.80;99.90
54082;DHT22;39986;50.770;0.266;2023-05-07T03:13:24;13.80;99.90
54082;DHT22;39986;50.770;0.266;2023-05-07T03:15:49;13.80;99.90
54082;DHT22;39986;50.770;0.266;2023-05-07T03:18:15;13.80;99.90
54082;DHT22;39986;50.770;0.266;2023-05-07T03:20:40;13.80;99.90
54082;DHT22;39986;50.770;0.266;2023-05-07T03:23:06;13.80;99.90
54082;DHT22;39986;50.770;0.266;2023-05-07T03:25:32;13.80;99.90
54082;DHT22;39986;50.770;0.266;2023-05-07T03:27:57;13.80;99.90
54082;DHT22;39986;50.770;0.266;2023-05-07T03:30:23;13.80;99.90
54082;DHT22;39986;50.770;0.266;2023-05-07T03:32:48;13.80;99.90
54082;DHT22;39986;50.770;0.266;2023-05-07T03:35:14;13.80;99.90
54082;DHT22;39986;50.770;0.266;2023-05-07T03:37:40;13.70;99.90
54082;DHT22;39986;50.770;0.266;2023-05-07T03:40:05;13.60;99.90
54082;DHT22;39986;50.770;0.266;2023-05-07T03:42:31;13.50;99.90
54082;DHT22;39986;50.770;0.266;2023-05-07T03:44:57;13.50;99.90
54082;DHT22;39986;50.770;0.266;2023-05-07T03:47:22;13.40;99.90
54082;DHT22;39986;50.770;0.266;2023-05-07T03:49:48;13.40;99.90
54082;DHT22;39986;50.770;0.266;2023-05-07T03:52:14;13.50;99.90
54082;DHT22;39986;50.770;0.266;2023-05-07T03:54:40;13.30;99.90
54082;DHT22;39986;50.770;0.266;2023-05-07T03:57:05;13.30;99.90
54082;DHT22;39986;50.770;0.266;2023-05-07T03:59:31;13.30;99.90
54082;DHT22;39986;50.770;0.266;2023-05-07T04:01:56;13.20;99.90
54082;DHT22;39986;50.770;0.266;2023-05-07T04:04:22;13.20;99.90
54082;DHT22;39986;50.770;0.266;2023-05-07T04:06:48;13.10;99.90
54082;DHT22;39986;50.770;0.266;2023-05-07T04:09:13;13.10;99.90
54082;DHT22;39986;50.770;0.266;2023-05-07T04:11:39;13.00;99.90
54082;DHT22;39986;50.770;0.266;2023-05-07T04:14:05;13.00;99.90
54082;DHT22;39986;50.770;0.266;2023-05-07T04:16:31;13.00;99.90
54082;DHT22;39986;50.770;0.266;2023-05-07T04:18:56;13.00;99.90
54082;DHT22;39986;50.770;0.266;2023-05-07T04:21:22;12.90;99.90
54082;DHT22;39986;50.770;0.266;2023-05-07T04:23:48;12.90;99.90
54082;DHT22;39986;50.770;0.266;2023-05-07T04:26:13;12.90;99.90
54082;DHT22;39986;50.770;0.266;2023-05-07T04:28:39;12.80;99.90
54082;DHT22;39986;50.770;0.266;2023-05-07T04:31:05;12.80;99.90
54082;DHT22;39986;50.770;0.266;2023-05-07T04:33:31;12.70;99.90
54082;DHT22;39986;50.770;0.266;2023-05-07T04:35:57;12.70;99.90
54082;DHT22;39986;50.770;0.266;2023-05-07T04:38:22;12.80;99.90
54082;DHT22;39986;50.770;0.266;2023-05-07T04:40:49;12.70;99.90
54082;DHT22;39986;50.770;0.266;2023-05-07T04:43:15;12.70;99.90
54082;DHT22;39986;50.770;0.266;2023-05-07T04:45:41;12.70;99.90
54082;DHT22;39986;50.770;0.266;2023-05-07T04:48:07;12.90;99.90
54082;DHT22;39986;50.770;0.266;2023-05-07T04:50:32;12.80;99.90
54082;DHT22;39986;50.770;0.266;2023-05-07T04:52:58;12.90;99.90
54082;DHT22;39986;50.770;0.266;2023-05-07T04:55:24;13.00;99.90
54082;DHT22;39986;50.770;0.266;2023-05-07T04:57:49;13.00;99.90
54082;DHT22;39986;50.770;0.266;2023-05-07T05:00:15;13.00;99.90
54082;DHT22;39986;50.770;0.266;2023-05-07T05:02:41;13.10;99.90
54082;DHT22;39986;50.770;0.266;2023-05-07T05:05:07;13.10;99.90
54082;DHT22;39986;50.770;0.266;2023-05-07T05:07:33;13.10;99.90
54082;DHT22;39986;50.770;0.266;2023-05-07T05:09:58;13.10;99.90
54082;DHT22;39986;50.770;0.266;2023-05-07T05:12:24;13.00;99.90
54082;DHT22;39986;50.770;0.266;2023-05-07T05:14:50;13.00;99.90
54082;DHT22;39986;50.770;0.266;2023-05-07T05:17:15;13.00;99.90
54082;DHT22;39986;50.770;0.266;2023-05-07T05:19:41;13.00;99.90
54082;DHT22;39986;50.770;0.266;2023-05-07T05:22:06;13.10;99.90
54082;DHT22;39986;50.770;0.266;2023-05-07T05:24:32;13.20;99.90
54082;DHT22;39986;50.770;0.266;2023-05-07T05:26:57;13.20;99.90
54082;DHT22;39986;50.770;0.266;2023-05-07T05:29:25;13.10;99.90
54082;DHT22;39986;50.770;0.266;2023-05-07T05:31:50;13.20;99.90
54082;DHT22;39986;50.770;0.266;2023-05-07T05:34:16;13.40;99.90
54082;DHT22;39986;50.770;0.266;2023-05-07T05:36:42;13.50;99.90
54082;DHT22;39986;50.770;0.266;2023-05-07T05:39:08;13.30;99.90
54082;DHT22;39986;50.770;0.266;2023-05-07T05:41:34;13.40;99.90
54082;DHT22;39986;50.770;0.266;2023-05-07T05:44:00;13.20;99.90
54082;DHT22;39986;50.770;0.266;2023-05-07T05:46:25;13.30;99.90
54082;DHT22;39986;50.770;0.266;2023-05-07T05:48:51;13.40;99.90
54082;DHT22;39986;50.770;0.266;2023-05-07T05:51:16;13.50;99.90
54082;DHT22;39986;50.770;0.266;2023-05-07T05:53:42;13.60;99.90
54082;DHT22;39986;50.770;0.266;2023-05-07T05:56:07;13.70;99.90
54082;DHT22;39986;50.770;0.266;2023-05-07T05:58:33;13.60;99.90
54082;DHT22;39986;50.770;0.266;2023-05-07T06:00:59;13.70;99.90
54082;DHT22;39986;50.770;0.266;2023-05-07T06:03:24;13.70;99.90
54082;DHT22;39986;50.770;0.266;2023-05-07T06:05:50;13.70;99.90
54082;DHT22;39986;50.770;0.266;2023-05-07T06:08:16;13.80;99.90
54082;DHT22;39986;50.770;0.266;2023-05-07T06:10:42;13.70;99.90
54082;DHT22;39986;50.770;0.266;2023-05-07T06:13:08;13.70;99.90
54082;DHT22;39986;50.770;0.266;2023-05-07T06:15:33;13.60;99.90
54082;DHT22;39986;50.770;0.266;2023-05-07T06:17:59;13.70;99.90
54082;DHT22;39986;50.770;0.266;2023-05-07T06:20:24;13.70;99.90
54082;DHT22;39986;50.770;0.266;2023-05-07T06:22:50;13.80;99.90
54082;DHT22;39986;50.770;0.266;2023-05-07T06:25:15;13.80;99.90
54082;DHT22;39986;50.770;0.266;2023-05-07T06:27:41;13.80;99.90
54082;DHT22;39986;50.770;0.266;2023-05-07T06:30:06;13.80;99.90
54082;DHT22;39986;50.770;0.266;2023-05-07T06:32:32;13.90;99.90
54082;DHT22;39986;50.770;0.266;2023-05-07T06:34:58;14.00;99.90
54082;DHT22;39986;50.770;0.266;2023-05-07T06:37:23;14.10;99.90
54082;DHT22;39986;50.770;0.266;2023-05-07T06:39:49;14.30;99.90
54082;DHT22;39986;50.770;0.266;2023-05-07T06:42:14;14.60;99.90
54082;DHT22;39986;50.770;0.266;2023-05-07T06:44:40;14.80;99.90
54082;DHT22;39986;50.770;0.266;2023-05-07T06:47:05;15.20;99.90
54082;DHT22;39986;50.770;0.266;2023-05-07T06:49:31;15.30;99.90
54082;DHT22;39986;50.770;0.266;2023-05-07T06:51:57;15.50;99.90
54082;DHT22;39986;50.770;0.266;2023-05-07T06:54:23;15.60;99.90
54082;DHT22;39986;50.770;0.266;2023-05-07T06:56:48;15.70;99.90
54082;DHT22;39986;50.770;0.266;2023-05-07T06:59:14;15.70;99.90
54082;DHT22;39986;50.770;0.266;2023-05-07T07:01:39;15.80;99.90
54082;DHT22;39986;50.770;0.266;2023-05-07T07:04:05;15.80;99.90
54082;DHT22;39986;50.770;0.266;2023-05-07T07:06:31;15.70;99.90
54082;DHT22;39986;50.770;0.266;2023-05-07T07:08:57;15.90;99.90
54082;DHT22;39986;50.770;0.266;2023-05-07T07:11:23;16.00;99.90
54082;DHT22;39986;50.770;0.266;2023-05-07T07:13:48;16.00;99.90
54082;DHT22;39986;50.770;0.266;2023-05-07T07:16:14;16.10;99.90
54082;DHT22;39986;50.770;0.266;2023-05-07T07:18:39;16.20;99.90
54082;DHT22;39986;50.770;0.266;2023-05-07T07:21:05;16.30;99.90
54082;DHT22;39986;50.770;0.266;2023-05-07T07:23:30;16.40;99.90
54082;DHT22;39986;50.770;0.266;2023-05-07T07:25:56;16.30;99.90
54082;DHT22;39986;50.770;0.266;2023-05-07T07:28:22;16.20;99.90
54082;DHT22;39986;50.770;0.266;2023-05-07T07:30:47;16.10;99.90
54082;DHT22;39986;50.770;0.266;2023-05-07T07:33:13;16.10;99.90
54082;DHT22;39986;50.770;0.266;2023-05-07T07:35:39;15.90;99.90
54082;DHT22;39986;50.770;0.266;2023-05-07T07:38:04;16.00;99.90
54082;DHT22;39986;50.770;0.266;2023-05-07T07:40:30;16.10;99.90
54082;DHT22;39986;50.770;0.266;2023-05-07T07:42:56;16.20;99.90
54082;DHT22;39986;50.770;0.266;2023-05-07T07:45:21;16.20;99.90
54082;DHT22;39986;50.770;0.266;2023-05-07T07:47:47;16.40;99.90
54082;DHT22;39986;50.770;0.266;2023-05-07T07:50:12;16.40;99.90
54082;DHT22;39986;50.770;0.266;2023-05-07T07:52:38;16.50;99.90
54082;DHT22;39986;50.770;0.266;2023-05-07T07:55:04;16.50;99.90
54082;DHT22;39986;50.770;0.266;2023-05-07T07:57:29;16.60;99.90
54082;DHT22;39986;50.770;0.266;2023-05-07T07:59:55;16.60;99.90
54082;DHT22;39986;50.770;0.266;2023-05-07T08:02:20;16.70;99.90
54082;DHT22;39986;50.770;0.266;2023-05-07T08:04:46;16.60;99.90
54082;DHT22;39986;50.770;0.266;2023-05-07T08:07:12;16.70;99.90
54082;DHT22;39986;50.770;0.266;2023-05-07T08:09:38;16.80;99.90
54082;DHT22;39986;50.770;0.266;2023-05-07T08:12:03;16.80;99.90
54082;DHT22;39986;50.770;0.266;2023-05-07T08:14:29;16.80;99.90
54082;DHT22;39986;50.770;0.266;2023-05-07T08:16:55;16.80;99.90
54082;DHT22;39986;50.770;0.266;2023-05-07T08:19:20;16.90;99.90
54082;DHT22;39986;50.770;0.266;2023-05-07T08:21:47;16.80;99.90
54082;DHT22;39986;50.770;0.266;2023-05-07T08:24:15;16.70;99.90
54082;DHT22;39986;50.770;0.266;2023-05-07T08:26:41;16.70;99.90
54082;DHT22;39986;50.770;0.266;2023-05-07T08:29:07;16.80;99.90
54082;DHT22;39986;50.770;0.266;2023-05-07T08:31:32;16.90;99.90
54082;DHT22;39986;50.770;0.266;2023-05-07T08:33:58;17.00;99.90
54082;DHT22;39986;50.770;0.266;2023-05-07T08:36:24;17.10;99.90
54082;DHT22;39986;50.770;0.266;2023-05-07T08:38:51;17.10;99.90
54082;DHT22;39986;50.770;0.266;2023-05-07T08:41:16;17.10;99.90
54082;DHT22;39986;50.770;0.266;2023-05-07T08:43:42;17.10;99.90
54082;DHT22;39986;50.770;0.266;2023-05-07T08:46:11;17.10;99.90
54082;DHT22;39986;50.770;0.266;2023-05-07T08:48:37;17.20;99.90
54082;DHT22;39986;50.770;0.266;2023-05-07T08:51:02;17.20;99.90
54082;DHT22;39986;50.770;0.266;2023-05-07T08:53:28;17.20;99.90
54082;DHT22;39986;50.770;0.266;2023-05-07T08:55:53;17.00;99.90
54082;DHT22;39986;50.770;0.266;2023-05-07T08:58:20;16.90;99.90
54082;DHT22;39986;50.770;0.266;2023-05-07T09:00:45;17.00;99.90
54082;DHT22;39986;50.770;0.266;2023-05-07T09:03:11;17.10;99.90
54082;DHT22;39986;50.770;0.266;2023-05-07T09:05:38;17.20;99.90
54082;DHT22;39986;50.770;0.266;2023-05-07T09:08:03;17.20;99.90
54082;DHT22;39986;50.770;0.266;2023-05-07T09:10:31;17.30;99.90
54082;DHT22;39986;50.770;0.266;2023-05-07T09:12:57;17.40;99.90
54082;DHT22;39986;50.770;0.266;2023-05-07T09:15:23;17.40;99.90
54082;DHT22;39986;50.770;0.266;2023-05-07T09:17:48;17.40;99.90
54082;DHT22;39986;50.770;0.266;2023-05-07T09:20:14;17.60;99.90
54082;DHT22;39986;50.770;0.266;2023-05-07T09:22:41;17.70;99.90
54082;DHT22;39986;50.770;0.266;2023-05-07T09:25:06;18.10;99.90
54082;DHT22;39986;50.770;0.266;2023-05-07T09:27:32;18.40;99.90
54082;DHT22;39986;50.770;0.266;2023-05-07T09:29:58;18.80;99.90
54082;DHT22;39986;50.770;0.266;2023-05-07T09:32:24;19.00;99.90
54082;DHT22;39986;50.770;0.266;2023-05-07T09:34:50;19.10;99.90
54082;DHT22;39986;50.770;0.266;2023-05-07T09:37:15;19.30;99.90
54082;DHT22;39986;50.770;0.266;2023-05-07T09:39:42;19.40;99.90
54082;DHT22;39986;50.770;0.266;2023-05-07T09:42:07;19.60;99.90
54082;DHT22;39986;50.770;0.266;2023-05-07T09:44:34;19.80;99.90
54082;DHT22;39986;50.770;0.266;2023-05-07T09:47:00;20.00;99.90
54082;DHT22;39986;50.770;0.266;2023-05-07T09:49:27;20.00;99.90
54082;DHT22;39986;50.770;0.266;2023-05-07T09:51:55;20.10;99.90
54082;DHT22;39986;50.770;0.266;2023-05-07T09:54:22;20.20;99.90
54082;DHT22;39986;50.770;0.266;2023-05-07T09:56:48;20.10;99.90
54082;DHT22;39986;50.770;0.266;2023-05-07T09:59:15;19.90;99.90
54082;DHT22;39986;50.770;0.266;2023-05-07T10:01:41;20.00;99.90
54082;DHT22;39986;50.770;0.266;2023-05-07T10:04:07;20.30;99.90
54082;DHT22;39986;50.770;0.266;2023-05-07T10:06:37;20.60;99.90
54082;DHT22;39986;50.770;0.266;2023-05-07T10:09:05;20.70;99.90
54082;DHT22;39986;50.770;0.266;2023-05-07T10:11:34;20.70;99.90
54082;DHT22;39986;50.770;0.266;2023-05-07T10:14:03;20.80;99.90
54082;DHT22;39986;50.770;0.266;2023-05-07T10:16:31;21.00;99.90
54082;DHT22;39986;50.770;0.266;2023-05-07T10:18:58;21.20;99.90
54082;DHT22;39986;50.770;0.266;2023-05-07T10:21:24;21.20;99.90
54082;DHT22;39986;50.770;0.266;2023-05-07T10:26:23;21.20;99.90
54082;DHT22;39986;50.770;0.266;2023-05-07T10:28:53;21.30;99.90
54082;DHT22;39986;50.770;0.266;2023-05-07T10:34:02;22.10;99.90
54082;DHT22;39986;50.770;0.266;2023-05-07T10:36:32;22.30;99.90
54082;DHT22;39986;50.770;0.266;2023-05-07T10:38:59;22.60;99.90
54082;DHT22;39986;50.770;0.266;2023-05-07T10:41:25;22.70;99.90
54082;DHT22;39986;50.770;0.266;2023-05-07T10:43:50;22.50;99.90
54082;DHT22;39986;50.770;0.266;2023-05-07T10:46:17;22.40;99.90
54082;DHT22;39986;50.770;0.266;2023-05-07T10:51:32;22.20;99.90
54082;DHT22;39986;50.770;0.266;2023-05-07T10:56:39;22.80;99.90
54082;DHT22;39986;50.770;0.266;2023-05-07T10:59:29;23.30;99.90
54082;DHT22;39986;50.770;0.266;2023-05-07T11:02:03;23.90;99.90
54082;DHT22;39986;50.770;0.266;2023-05-07T11:04:31;26.30;99.90
54082;DHT22;39986;50.770;0.266;2023-05-07T11:12:16;25.70;99.90
54082;DHT22;39986;50.770;0.266;2023-05-07T11:17:11;24.60;99.90
54082;DHT22;39986;50.770;0.266;2023-05-07T11:19:55;24.30;99.90
54082;DHT22;39986;50.770;0.266;2023-05-07T11:24:55;23.60;99.90
54082;DHT22;39986;50.770;0.266;2023-05-07T11:27:24;23.20;99.90
54082;DHT22;39986;50.770;0.266;2023-05-07T11:29:50;22.70;99.90
54082;DHT22;39986;50.770;0.266;2023-05-07T11:32:22;22.20;99.90
54082;DHT22;39986;50.770;0.266;2023-05-07T11:34:47;21.90;99.90
54082;DHT22;39986;50.770;0.266;2023-05-07T11:37:16;21.70;99.90
54082;DHT22;39986;50.770;0.266;2023-05-07T11:39:42;21.40;99.90
54082;DHT22;39986;50.770;0.266;2023-05-07T11:42:21;21.40;99.90
54082;DHT22;39986;50.770;0.266;2023-05-07T11:44:50;21.10;99.90
54082;DHT22;39986;50.770;0.266;2023-05-07T11:47:18;21.10;99.90
54082;DHT22;39986;50.770;0.266;2023-05-07T11:49:47;21.30;99.90
54082;DHT22;39986;50.770;0.266;2023-05-07T11:52:13;21.60;99.90
54082;DHT22;39986;50.770;0.266;2023-05-07T11:54:39;21.90;99.90
54082;DHT22;39986;50.770;0.266;2023-05-07T11:57:05;22.10;99.90
54082;DHT22;39986;50.770;0.266;2023-05-07T11:59:37;22.30;99.90
54082;DHT22;39986;50.770;0.266;2023-05-07T12:02:03;22.70;99.90
54082;DHT22;39986;50.770;0.266;2023-05-07T12:04:29;23.70;99.90
54082;DHT22;39986;50.770;0.266;2023-05-07T12:06:55;24.30;99.90
54082;DHT22;39986;50.770;0.266;2023-05-07T12:09:23;24.10;99.90
54082;DHT22;39986;50.770;0.266;2023-05-07T12:11:49;23.80;99.90
54082;DHT22;39986;50.770;0.266;2023-05-07T12:14:16;23.40;99.90
54082;DHT22;39986;50.770;0.266;2023-05-07T12:16:42;23.20;99.90
54082;DHT22;39986;50.770;0.266;2023-05-07T12:19:07;22.90;99.90
54082;DHT22;39986;50.770;0.266;2023-05-07T12:21:34;22.90;99.90
54082;DHT22;39986;50.770;0.266;2023-05-07T12:24:01;22.90;99.90
54082;DHT22;39986;50.770;0.266;2023-05-07T12:26:26;23.00;99.90
54082;DHT22;39986;50.770;0.266;2023-05-07T12:28:52;22.80;99.90
54082;DHT22;39986;50.770;0.266;2023-05-07T12:31:18;22.70;99.90
54082;DHT22;39986;50.770;0.266;2023-05-07T12:33:43;22.70;99.90
54082;DHT22;39986;50.770;0.266;2023-05-07T12:36:11;22.50;99.90
54082;DHT22;39986;50.770;0.266;2023-05-07T12:38:38;22.20;99.90
54082;DHT22;39986;50.770;0.266;2023-05-07T12:41:04;21.70;99.90
54082;DHT22;39986;50.770;0.266;2023-05-07T12:43:30;21.40;99.90
54082;DHT22;39986;50.770;0.266;2023-05-07T12:45:56;21.10;99.90
54082;DHT22;39986;50.770;0.266;2023-05-07T12:48:22;20.40;99.90
54082;DHT22;39986;50.770;0.266;2023-05-07T12:50:49;19.70;99.90
54082;DHT22;39986;50.770;0.266;2023-05-07T12:53:15;19.30;99.90
54082;DHT22;39986;50.770;0.266;2023-05-07T12:55:42;19.30;99.90
54082;DHT22;39986;50.770;0.266;2023-05-07T12:58:07;19.50;99.90
54082;DHT22;39986;50.770;0.266;2023-05-07T13:00:36;19.90;99.90
54082;DHT22;39986;50.770;0.266;2023-05-07T13:03:02;20.00;99.90
54082;DHT22;39986;50.770;0.266;2023-05-07T13:05:28;20.30;99.90
54082;DHT22;39986;50.770;0.266;2023-05-07T13:07:54;20.80;99.90
54082;DHT22;39986;50.770;0.266;2023-05-07T13:10:20;21.40;99.90
54082;DHT22;39986;50.770;0.266;2023-05-07T13:12:45;21.90;99.90
54082;DHT22;39986;50.770;0.266;2023-05-07T13:15:11;22.10;99.90
54082;DHT22;39986;50.770;0.266;2023-05-07T13:17:36;22.20;99.90
54082;DHT22;39986;50.770;0.266;2023-05-07T13:20:02;22.50;99.90
54082;DHT22;39986;50.770;0.266;2023-05-07T13:22:27;22.30;99.90
54082;DHT22;39986;50.770;0.266;2023-05-07T13:24:53;22.10;99.90
54082;DHT22;39986;50.770;0.266;2023-05-07T13:27:20;21.80;99.90
54082;DHT22;39986;50.770;0.266;2023-05-07T13:29:45;21.30;99.90
54082;DHT22;39986;50.770;0.266;2023-05-07T13:32:11;20.80;99.90
54082;DHT22;39986;50.770;0.266;2023-05-07T13:34:36;20.50;99.90
54082;DHT22;39986;50.770;0.266;2023-05-07T13:37:02;20.20;99.90
54082;DHT22;39986;50.770;0.266;2023-05-07T13:39:27;19.80;99.90
54082;DHT22;39986;50.770;0.266;2023-05-07T13:41:53;20.00;99.90
54082;DHT22;39986;50.770;0.266;2023-05-07T13:44:19;20.20;99.90
54082;DHT22;39986;50.770;0.266;2023-05-07T13:46:44;20.40;99.90
54082;DHT22;39986;50.770;0.266;2023-05-07T13:49:10;21.00;99.90
54082;DHT22;39986;50.770;0.266;2023-05-07T13:51:36;21.30;99.90
54082;DHT22;39986;50.770;0.266;2023-05-07T13:54:02;21.30;99.90
54082;DHT22;39986;50.770;0.266;2023-05-07T13:56:28;21.20;99.90
54082;DHT22;39986;50.770;0.266;2023-05-07T13:58:56;21.30;99.90
54082;DHT22;39986;50.770;0.266;2023-05-07T14:01:21;21.30;99.90
54082;DHT22;39986;50.770;0.266;2023-05-07T14:03:47;21.10;99.90
54082;DHT22;39986;50.770;0.266;2023-05-07T14:06:12;20.90;99.90
54082;DHT22;39986;50.770;0.266;2023-05-07T14:08:38;20.70;99.90
54082;DHT22;39986;50.770;0.266;2023-05-07T14:11:03;20.60;99.90
54082;DHT22;39986;50.770;0.266;2023-05-07T14:13:29;20.30;99.90
54082;DHT22;39986;50.770;0.266;2023-05-07T14:15:56;20.30;99.90
54082;DHT22;39986;50.770;0.266;2023-05-07T14:18:21;20.20;99.90
54082;DHT22;39986;50.770;0.266;2023-05-07T14:20:47;20.20;99.90
54082;DHT22;39986;50.770;0.266;2023-05-07T14:23:14;20.20;99.90
54082;DHT22;39986;50.770;0.266;2023-05-07T14:25:40;19.90;99.90
54082;DHT22;39986;50.770;0.266;2023-05-07T14:28:06;19.90;99.90
54082;DHT22;39986;50.770;0.266;2023-05-07T14:30:32;20.10;99.90
54082;DHT22;39986;50.770;0.266;2023-05-07T14:32:57;20.40;99.90
54082;DHT22;39986;50.770;0.266;2023-05-07T14:35:23;20.80;99.90
54082;DHT22;39986;50.770;0.266;2023-05-07T14:37:48;21.20;99.90
54082;DHT22;39986;50.770;0.266;2023-05-07T14:40:14;21.50;99.90
54082;DHT22;39986;50.770;0.266;2023-05-07T14:42:40;22.10;99.90
54082;DHT22;39986;50.770;0.266;2023-05-07T14:45:06;23.90;99.90
54082;DHT22;39986;50.770;0.266;2023-05-07T14:47:34;25.50;99.90
54082;DHT22;39986;50.770;0.266;2023-05-07T14:50:00;26.30;99.90
54082;DHT22;39986;50.770;0.266;2023-05-07T14:52:26;27.70;99.90
54082;DHT22;39986;50.770;0.266;2023-05-07T14:54:51;29.30;99.90
54082;DHT22;39986;50.770;0.266;2023-05-07T14:57:17;30.50;99.90
54082;DHT22;39986;50.770;0.266;2023-05-07T14:59:43;30.80;99.90
54082;DHT22;39986;50.770;0.266;2023-05-07T15:02:09;30.90;99.90
54082;DHT22;39986;50.770;0.266;2023-05-07T15:04:35;29.60;99.90
54082;DHT22;39986;50.770;0.266;2023-05-07T15:07:01;27.80;99.90
54082;DHT22;39986;50.770;0.266;2023-05-07T15:09:27;26.00;99.90
54082;DHT22;39986;50.770;0.266;2023-05-07T15:11:52;24.40;99.90
54082;DHT22;39986;50.770;0.266;2023-05-07T15:14:18;23.20;99.90
54082;DHT22;39986;50.770;0.266;2023-05-07T15:16:43;22.30;99.90
54082;DHT22;39986;50.770;0.266;2023-05-07T15:19:09;21.80;99.90
54082;DHT22;39986;50.770;0.266;2023-05-07T15:21:34;21.40;99.90
54082;DHT22;39986;50.770;0.266;2023-05-07T15:24:01;21.20;99.90
54082;DHT22;39986;50.770;0.266;2023-05-07T15:26:27;20.90;99.90
54082;DHT22;39986;50.770;0.266;2023-05-07T15:28:52;20.70;99.90
54082;DHT22;39986;50.770;0.266;2023-05-07T15:31:18;20.50;99.90
54082;DHT22;39986;50.770;0.266;2023-05-07T15:33:43;20.30;99.90
54082;DHT22;39986;50.770;0.266;2023-05-07T15:36:10;20.00;99.90
54082;DHT22;39986;50.770;0.266;2023-05-07T15:38:36;19.80;99.90
54082;DHT22;39986;50.770;0.266;2023-05-07T15:41:01;19.60;99.90
54082;DHT22;39986;50.770;0.266;2023-05-07T15:43:27;19.40;99.90